sensor_id;sensor_type;location;lat;lon;timestamp;temperature;humidity
66328;DHT22;53133;52.862;6.602;2022-10-13T00:01:23;11.10;99.90
66328;DHT22;53133;52.862;6.602;2022-10-13T00:03:49;11.10;99.90
66328;DHT22;53133;52.862;6.602;2022-10-13T00:06:17;11.10;99.90
66328;DHT22;53133;52.862;6.602;2022-10-13T00:08:44;11.10;99.90
66328;DHT22;53133;52.862;6.602;2022-10-13T00:11:17;11.10;99.90
66328;DHT22;53133;52.862;6.602;2022-10-13T00:13:44;11.10;99.90
66328;DHT22;53133;52.862;6.602;2022-10-13T00:16:11;11.10;99.90
66328;DHT22;53133;52.862;6.602;2022-10-13T00:18:38;11.00;99.90
66328;DHT22;53133;52.862;6.602;2022-10-13T00:21:13;11.00;99.90
66328;DHT22;53133;52.862;6.602;2022-10-13T00:23:40;11.00;99.90
66328;DHT22;53133;52.862;6.602;2022-10-13T00:26:08;11.00;99.90
66328;DHT22;53133;52.862;6.602;2022-10-13T00:28:33;11.00;99.90
66328;DHT22;53133;52.862;6.602;2022-10-13T00:30:59;11.00;99.90
66328;DHT22;53133;52.862;6.602;2022-10-13T00:33:25;11.00;99.90
66328;DHT22;53133;52.862;6.602;2022-10-13T00:35:51;11.00;99.90
66328;DHT22;53133;52.862;6.602;2022-10-13T00:38:18;11.00;99.90
66328;DHT22;53133;52.862;6.602;2022-10-13T00:40:49;11.00;99.90
66328;DHT22;53133;52.862;6.602;2022-10-13T00:43:27;11.00;99.90
66328;DHT22;53133;52.862;6.602;2022-10-13T00:46:08;11.00;99.90
66328;DHT22;53133;52.862;6.602;2022-10-13T00:48:33;11.00;99.90
66328;DHT22;53133;52.862;6.602;2022-10-13T00:50:59;11.00;99.90
66328;DHT22;53133;52.862;6.602;2022-10-13T00:53:30;11.00;99.90
66328;DHT22;53133;52.862;6.602;2022-10-13T00:55:56;11.00;99.90
66328;DHT22;53133;52.862;6.602;2022-10-13T00:58:24;10.90;99.90
66328;DHT22;53133;52.862;6.602;2022-10-13T01:00:55;10.90;99.90
66328;DHT22;53133;52.862;6.602;2022-10-13T01:03:21;10.90;99.90
66328;DHT22;53133;52.862;6.602;2022-10-13T01:05:47;10.90;99.90
66328;DHT22;53133;52.862;6.602;2022-10-13T01:08:15;10.90;99.90
66328;DHT22;53133;52.862;6.602;2022-10-13T01:13:38;10.90;99.90
66328;DHT22;53133;52.862;6.602;2022-10-13T01:18:56;11.00;99.90
66328;DHT22;53133;52.862;6.602;2022-10-13T01:24:11;11.00;99.90
66328;DHT22;53133;52.862;6.602;2022-10-13T01:35:09;11.00;99.90
66328;DHT22;53133;52.862;6.602;2022-10-13T01:43:29;10.90;99.90
66328;DHT22;53133;52.862;6.602;2022-10-13T01:46:19;10.90;99.90
66328;DHT22;53133;52.862;6.602;2022-10-13T01:48:46;10.90;99.90
66328;DHT22;53133;52.862;6.602;2022-10-13T01:51:16;10.90;99.90
66328;DHT22;53133;52.862;6.602;2022-10-13T01:53:44;10.90;99.90
66328;DHT22;53133;52.862;6.602;2022-10-13T01:56:10;10.80;99.90
66328;DHT22;53133;52.862;6.602;2022-10-13T01:58:36;10.80;99.90
66328;DHT22;53133;52.862;6.602;2022-10-13T02:06:43;10.90;99.90
66328;DHT22;53133;52.862;6.602;2022-10-13T02:09:18;10.90;99.90
66328;DHT22;53133;52.862;6.602;2022-10-13T02:11:50;10.90;99.90
66328;DHT22;53133;52.862;6.602;2022-10-13T02:14:25;10.90;99.90
66328;DHT22;53133;52.862;6.602;2022-10-13T02:16:53;10.90;99.90
66328;DHT22;53133;52.862;6.602;2022-10-13T02:19:20;10.90;99.90
66328;DHT22;53133;52.862;6.602;2022-10-13T02:21:46;10.80;99.90
66328;DHT22;53133;52.862;6.602;2022-10-13T02:24:12;10.90;99.90
66328;DHT22;53133;52.862;6.602;2022-10-13T02:26:38;10.90;99.90
66328;DHT22;53133;52.862;6.602;2022-10-13T02:29:09;10.80;99.90
66328;DHT22;53133;52.862;6.602;2022-10-13T02:31:37;10.80;99.90
66328;DHT22;53133;52.862;6.602;2022-10-13T02:34:03;10.80;99.90
66328;DHT22;53133;52.862;6.602;2022-10-13T02:36:29;10.80;99.90
66328;DHT22;53133;52.862;6.602;2022-10-13T02:38:54;10.90;99.90
66328;DHT22;53133;52.862;6.602;2022-10-13T02:41:20;10.90;99.90
66328;DHT22;53133;52.862;6.602;2022-10-13T02:43:46;10.90;99.90
66328;DHT22;53133;52.862;6.602;2022-10-13T02:46:11;10.90;99.90
66328;DHT22;53133;52.862;6.602;2022-10-13T02:48:37;10.90;99.90
66328;DHT22;53133;52.862;6.602;2022-10-13T02:51:02;10.90;99.90
66328;DHT22;53133;52.862;6.602;2022-10-13T02:53:28;10.90;99.90
66328;DHT22;53133;52.862;6.602;2022-10-13T02:55:53;10.90;99.90
66328;DHT22;53133;52.862;6.602;2022-10-13T02:58:19;11.00;99.90
66328;DHT22;53133;52.862;6.602;2022-10-13T03:00:44;11.00;99.90
66328;DHT22;53133;52.862;6.602;2022-10-13T03:03:10;11.00;99.90
66328;DHT22;53133;52.862;6.602;2022-10-13T03:05:36;10.90;99.90
66328;DHT22;53133;52.862;6.602;2022-10-13T03:08:01;10.90;99.90
66328;DHT22;53133;52.862;6.602;2022-10-13T03:10:27;10.90;99.90
66328;DHT22;53133;52.862;6.602;2022-10-13T03:12:54;10.90;99.90
66328;DHT22;53133;52.862;6.602;2022-10-13T03:15:20;10.90;99.90
66328;DHT22;53133;52.862;6.602;2022-10-13T03:17:45;10.90;99.90
66328;DHT22;53133;52.862;6.602;2022-10-13T03:20:11;10.90;99.90
66328;DHT22;53133;52.862;6.602;2022-10-13T03:22:36;10.90;99.90
66328;DHT22;53133;52.862;6.602;2022-10-13T03:25:02;10.90;99.90
66328;DHT22;53133;52.862;6.602;2022-10-13T03:27:28;10.90;99.90
66328;DHT22;53133;52.862;6.602;2022-10-13T03:29:53;11.00;99.90
66328;DHT22;53133;52.862;6.602;2022-10-13T03:32:19;11.00;99.90
66328;DHT22;53133;52.862;6.602;2022-10-13T03:34:45;10.90;99.90
66328;DHT22;53133;52.862;6.602;2022-10-13T03:37:10;10.90;99.90
66328;DHT22;53133;52.862;6.602;2022-10-13T03:39:36;11.00;99.90
66328;DHT22;53133;52.862;6.602;2022-10-13T03:42:01;10.90;99.90
66328;DHT22;53133;52.862;6.602;2022-10-13T03:44:27;10.90;99.90
66328;DHT22;53133;52.862;6.602;2022-10-13T03:46:52;10.90;99.90
66328;DHT22;53133;52.862;6.602;2022-10-13T03:49:18;10.90;99.90
66328;DHT22;53133;52.862;6.602;2022-10-13T03:51:44;10.90;99.90
66328;DHT22;53133;52.862;6.602;2022-10-13T03:54:11;11.00;99.90
66328;DHT22;53133;52.862;6.602;2022-10-13T03:56:37;10.90;99.90
66328;DHT22;53133;52.862;6.602;2022-10-13T03:59:03;10.90;99.90
66328;DHT22;53133;52.862;6.602;2022-10-13T04:01:30;10.90;99.90
66328;DHT22;53133;52.862;6.602;2022-10-13T04:03:58;11.00;99.90
66328;DHT22;53133;52.862;6.602;2022-10-13T04:06:25;11.00;99.90
66328;DHT22;53133;52.862;6.602;2022-10-13T04:08:51;11.00;99.90
66328;DHT22;53133;52.862;6.602;2022-10-13T04:11:19;10.90;99.90
66328;DHT22;53133;52.862;6.602;2022-10-13T04:13:45;11.00;99.90
66328;DHT22;53133;52.862;6.602;2022-10-13T04:16:22;11.00;99.90
66328;DHT22;53133;52.862;6.602;2022-10-13T04:18:54;11.00;99.90
66328;DHT22;53133;52.862;6.602;2022-10-13T04:21:20;11.00;99.90
66328;DHT22;53133;52.862;6.602;2022-10-13T04:23:47;10.90;99.90
66328;DHT22;53133;52.862;6.602;2022-10-13T04:26:20;10.90;99.90
66328;DHT22;53133;52.862;6.602;2022-10-13T04:28:48;10.90;99.90
66328;DHT22;53133;52.862;6.602;2022-10-13T04:31:14;10.90;99.90
66328;DHT22;53133;52.862;6.602;2022-10-13T04:33:40;10.90;99.90
66328;DHT22;53133;52.862;6.602;2022-10-13T04:36:07;10.90;99.90
66328;DHT22;53133;52.862;6.602;2022-10-13T04:38:33;11.00;99.90
66328;DHT22;53133;52.862;6.602;2022-10-13T04:41:02;10.90;99.90
66328;DHT22;53133;52.862;6.602;2022-10-13T04:43:28;11.00;99.90
66328;DHT22;53133;52.862;6.602;2022-10-13T04:46:02;11.00;99.90
66328;DHT22;53133;52.862;6.602;2022-10-13T04:48:28;11.00;99.90
66328;DHT22;53133;52.862;6.602;2022-10-13T04:51:00;11.00;99.90
66328;DHT22;53133;52.862;6.602;2022-10-13T04:53:27;11.00;99.90
66328;DHT22;53133;52.862;6.602;2022-10-13T04:55:54;11.00;99.90
66328;DHT22;53133;52.862;6.602;2022-10-13T04:58:20;11.00;99.90
66328;DHT22;53133;52.862;6.602;2022-10-13T05:00:46;11.00;99.90
66328;DHT22;53133;52.862;6.602;2022-10-13T05:03:12;11.00;99.90
66328;DHT22;53133;52.862;6.602;2022-10-13T05:05:38;11.00;99.90
66328;DHT22;53133;52.862;6.602;2022-10-13T05:08:04;11.00;99.90
66328;DHT22;53133;52.862;6.602;2022-10-13T05:10:30;11.00;99.90
66328;DHT22;53133;52.862;6.602;2022-10-13T05:12:56;11.00;99.90
66328;DHT22;53133;52.862;6.602;2022-10-13T05:15:21;11.00;99.90
66328;DHT22;53133;52.862;6.602;2022-10-13T05:17:47;11.00;99.90
66328;DHT22;53133;52.862;6.602;2022-10-13T05:20:13;11.00;99.90
66328;DHT22;53133;52.862;6.602;2022-10-13T05:22:39;11.00;99.90
66328;DHT22;53133;52.862;6.602;2022-10-13T05:25:04;11.00;99.90
66328;DHT22;53133;52.862;6.602;2022-10-13T05:27:30;11.00;99.90
66328;DHT22;53133;52.862;6.602;2022-10-13T05:29:56;11.00;99.90
66328;DHT22;53133;52.862;6.602;2022-10-13T05:32:21;11.00;99.90
66328;DHT22;53133;52.862;6.602;2022-10-13T05:34:47;11.00;99.90
66328;DHT22;53133;52.862;6.602;2022-10-13T05:37:13;11.00;99.90
66328;DHT22;53133;52.862;6.602;2022-10-13T05:39:41;11.00;99.90
66328;DHT22;53133;52.862;6.602;2022-10-13T05:42:07;11.00;99.90
66328;DHT22;53133;52.862;6.602;2022-10-13T05:44:33;11.00;99.90
66328;DHT22;53133;52.862;6.602;2022-10-13T05:47:00;11.00;99.90
66328;DHT22;53133;52.862;6.602;2022-10-13T05:49:26;11.00;99.90
66328;DHT22;53133;52.862;6.602;2022-10-13T05:51:58;11.00;99.90
66328;DHT22;53133;52.862;6.602;2022-10-13T05:54:32;11.00;99.90
66328;DHT22;53133;52.862;6.602;2022-10-13T05:57:03;11.00;99.90
66328;DHT22;53133;52.862;6.602;2022-10-13T05:59:32;11.00;99.90
66328;DHT22;53133;52.862;6.602;2022-10-13T06:02:00;11.00;99.90
66328;DHT22;53133;52.862;6.602;2022-10-13T06:04:31;11.10;99.90
66328;DHT22;53133;52.862;6.602;2022-10-13T06:06:58;11.10;99.90
66328;DHT22;53133;52.862;6.602;2022-10-13T06:09:26;11.10;99.90
66328;DHT22;53133;52.862;6.602;2022-10-13T06:11:55;11.10;99.90
66328;DHT22;53133;52.862;6.602;2022-10-13T06:14:21;11.10;99.90
66328;DHT22;53133;52.862;6.602;2022-10-13T06:16:47;11.10;99.90
66328;DHT22;53133;52.862;6.602;2022-10-13T06:19:12;11.10;99.90
66328;DHT22;53133;52.862;6.602;2022-10-13T06:21:38;11.10;99.90
66328;DHT22;53133;52.862;6.602;2022-10-13T06:24:04;11.10;99.90
66328;DHT22;53133;52.862;6.602;2022-10-13T06:26:29;11.10;99.90
66328;DHT22;53133;52.862;6.602;2022-10-13T06:28:55;11.10;99.90
66328;DHT22;53133;52.862;6.602;2022-10-13T06:31:21;11.10;99.90
66328;DHT22;53133;52.862;6.602;2022-10-13T06:33:46;11.20;99.90
66328;DHT22;53133;52.862;6.602;2022-10-13T06:36:12;11.10;99.90
66328;DHT22;53133;52.862;6.602;2022-10-13T06:38:37;11.10;99.90
66328;DHT22;53133;52.862;6.602;2022-10-13T06:41:04;11.20;99.90
66328;DHT22;53133;52.862;6.602;2022-10-13T06:43:30;11.20;99.90
66328;DHT22;53133;52.862;6.602;2022-10-13T06:45:59;11.20;99.90
66328;DHT22;53133;52.862;6.602;2022-10-13T06:48:27;11.20;99.90
66328;DHT22;53133;52.862;6.602;2022-10-13T06:50:53;11.20;99.90
66328;DHT22;53133;52.862;6.602;2022-10-13T06:53:19;11.20;99.90
66328;DHT22;53133;52.862;6.602;2022-10-13T06:55:45;11.20;99.90
66328;DHT22;53133;52.862;6.602;2022-10-13T06:58:11;11.20;99.90
66328;DHT22;53133;52.862;6.602;2022-10-13T07:00:37;11.30;99.90
66328;DHT22;53133;52.862;6.602;2022-10-13T07:03:04;11.20;99.90
66328;DHT22;53133;52.862;6.602;2022-10-13T07:05:30;11.30;99.90
66328;DHT22;53133;52.862;6.602;2022-10-13T07:07:55;11.30;99.90
66328;DHT22;53133;52.862;6.602;2022-10-13T07:10:21;11.30;99.90
66328;DHT22;53133;52.862;6.602;2022-10-13T07:12:47;11.30;99.90
66328;DHT22;53133;52.862;6.602;2022-10-13T07:15:12;11.30;99.90
66328;DHT22;53133;52.862;6.602;2022-10-13T07:17:38;11.30;99.90
66328;DHT22;53133;52.862;6.602;2022-10-13T07:20:04;11.30;99.90
66328;DHT22;53133;52.862;6.602;2022-10-13T07:22:30;11.30;99.90
66328;DHT22;53133;52.862;6.602;2022-10-13T07:24:56;11.30;99.90
66328;DHT22;53133;52.862;6.602;2022-10-13T07:27:22;11.30;99.90
66328;DHT22;53133;52.862;6.602;2022-10-13T07:29:48;11.30;99.90
66328;DHT22;53133;52.862;6.602;2022-10-13T07:32:13;11.30;99.90
66328;DHT22;53133;52.862;6.602;2022-10-13T07:34:39;11.40;99.90
66328;DHT22;53133;52.862;6.602;2022-10-13T07:37:05;11.30;99.90
66328;DHT22;53133;52.862;6.602;2022-10-13T07:39:30;11.40;99.90
66328;DHT22;53133;52.862;6.602;2022-10-13T07:41:56;11.40;99.90
66328;DHT22;53133;52.862;6.602;2022-10-13T07:44:21;11.40;99.90
66328;DHT22;53133;52.862;6.602;2022-10-13T07:46:47;11.40;99.90
66328;DHT22;53133;52.862;6.602;2022-10-13T07:49:13;11.50;99.90
66328;DHT22;53133;52.862;6.602;2022-10-13T07:51:38;11.50;99.90
66328;DHT22;53133;52.862;6.602;2022-10-13T07:54:04;11.60;99.90
66328;DHT22;53133;52.862;6.602;2022-10-13T07:56:32;11.60;99.90
66328;DHT22;53133;52.862;6.602;2022-10-13T07:58:58;11.60;99.90
66328;DHT22;53133;52.862;6.602;2022-10-13T08:01:23;11.70;99.90
66328;DHT22;53133;52.862;6.602;2022-10-13T08:03:49;11.70;99.90
66328;DHT22;53133;52.862;6.602;2022-10-13T08:06:15;11.70;99.90
66328;DHT22;53133;52.862;6.602;2022-10-13T08:08:41;11.70;99.90
66328;DHT22;53133;52.862;6.602;2022-10-13T08:11:10;11.80;99.90
66328;DHT22;53133;52.862;6.602;2022-10-13T08:13:36;11.90;99.90
66328;DHT22;53133;52.862;6.602;2022-10-13T08:16:02;11.90;99.90
66328;DHT22;53133;52.862;6.602;2022-10-13T08:18:29;12.00;99.90
66328;DHT22;53133;52.862;6.602;2022-10-13T08:20:54;12.00;99.90
66328;DHT22;53133;52.862;6.602;2022-10-13T08:23:20;12.10;99.90
66328;DHT22;53133;52.862;6.602;2022-10-13T08:25:46;12.20;99.90
66328;DHT22;53133;52.862;6.602;2022-10-13T08:28:20;12.20;99.90
66328;DHT22;53133;52.862;6.602;2022-10-13T08:30:46;12.30;99.90
66328;DHT22;53133;52.862;6.602;2022-10-13T08:33:12;12.30;99.90
66328;DHT22;53133;52.862;6.602;2022-10-13T08:35:37;12.30;99.90
66328;DHT22;53133;52.862;6.602;2022-10-13T08:38:03;12.40;99.90
66328;DHT22;53133;52.862;6.602;2022-10-13T08:40:29;12.40;99.90
66328;DHT22;53133;52.862;6.602;2022-10-13T08:42:56;12.50;99.90
66328;DHT22;53133;52.862;6.602;2022-10-13T08:45:25;12.50;99.90
66328;DHT22;53133;52.862;6.602;2022-10-13T08:47:55;12.50;99.90
66328;DHT22;53133;52.862;6.602;2022-10-13T08:50:28;12.60;99.90
66328;DHT22;53133;52.862;6.602;2022-10-13T08:53:27;12.60;99.90
66328;DHT22;53133;52.862;6.602;2022-10-13T08:55:57;12.70;99.90
66328;DHT22;53133;52.862;6.602;2022-10-13T08:58:28;12.70;99.90
66328;DHT22;53133;52.862;6.602;2022-10-13T09:06:21;12.80;99.90
66328;DHT22;53133;52.862;6.602;2022-10-13T09:08:59;12.80;99.90
66328;DHT22;53133;52.862;6.602;2022-10-13T09:11:28;12.80;99.90
66328;DHT22;53133;52.862;6.602;2022-10-13T09:13:56;12.90;99.90
66328;DHT22;53133;52.862;6.602;2022-10-13T09:16:49;12.90;99.90
66328;DHT22;53133;52.862;6.602;2022-10-13T09:19:25;12.90;99.90
66328;DHT22;53133;52.862;6.602;2022-10-13T09:21:56;12.90;99.90
66328;DHT22;53133;52.862;6.602;2022-10-13T09:24:24;12.80;99.90
66328;DHT22;53133;52.862;6.602;2022-10-13T09:27:04;12.80;99.90
66328;DHT22;53133;52.862;6.602;2022-10-13T09:29:30;12.90;99.90
66328;DHT22;53133;52.862;6.602;2022-10-13T09:34:40;13.00;99.90
66328;DHT22;53133;52.862;6.602;2022-10-13T09:37:19;13.00;99.90
66328;DHT22;53133;52.862;6.602;2022-10-13T09:39:45;13.00;99.90
66328;DHT22;53133;52.862;6.602;2022-10-13T09:42:25;13.10;99.90
66328;DHT22;53133;52.862;6.602;2022-10-13T09:45:10;13.10;99.90
66328;DHT22;53133;52.862;6.602;2022-10-13T09:47:37;13.10;99.90
66328;DHT22;53133;52.862;6.602;2022-10-13T09:50:17;13.10;99.90
66328;DHT22;53133;52.862;6.602;2022-10-13T09:52:46;13.20;99.90
66328;DHT22;53133;52.862;6.602;2022-10-13T09:55:31;13.20;99.90
66328;DHT22;53133;52.862;6.602;2022-10-13T09:58:05;13.20;99.90
66328;DHT22;53133;52.862;6.602;2022-10-13T10:00:31;13.20;99.90
66328;DHT22;53133;52.862;6.602;2022-10-13T10:05:52;13.30;99.90
66328;DHT22;53133;52.862;6.602;2022-10-13T10:10:51;13.20;99.90
66328;DHT22;53133;52.862;6.602;2022-10-13T10:13:17;13.20;99.90
66328;DHT22;53133;52.862;6.602;2022-10-13T10:16:04;13.20;99.90
66328;DHT22;53133;52.862;6.602;2022-10-13T10:19:01;13.20;99.90
66328;DHT22;53133;52.862;6.602;2022-10-13T10:21:48;13.20;99.90
66328;DHT22;53133;52.862;6.602;2022-10-13T10:24:26;13.20;99.90
66328;DHT22;53133;52.862;6.602;2022-10-13T10:27:00;13.20;99.90
66328;DHT22;53133;52.862;6.602;2022-10-13T10:29:33;13.20;99.90
66328;DHT22;53133;52.862;6.602;2022-10-13T10:35:00;13.10;99.90
66328;DHT22;53133;52.862;6.602;2022-10-13T10:37:52;13.20;99.90
66328;DHT22;53133;52.862;6.602;2022-10-13T10:45:38;13.20;99.90
66328;DHT22;53133;52.862;6.602;2022-10-13T10:48:19;13.20;99.90
66328;DHT22;53133;52.862;6.602;2022-10-13T10:50:45;13.20;99.90
66328;DHT22;53133;52.862;6.602;2022-10-13T10:53:36;13.20;99.90
66328;DHT22;53133;52.862;6.602;2022-10-13T11:08:45;13.30;99.90
66328;DHT22;53133;52.862;6.602;2022-10-13T11:16:38;13.40;99.90
66328;DHT22;53133;52.862;6.602;2022-10-13T11:35:22;13.70;99.90
66328;DHT22;53133;52.862;6.602;2022-10-13T11:43:54;13.70;99.90
66328;DHT22;53133;52.862;6.602;2022-10-13T11:47:01;13.70;99.90
66328;DHT22;53133;52.862;6.602;2022-10-13T11:49:55;13.70;99.90
66328;DHT22;53133;52.862;6.602;2022-10-13T11:55:49;13.70;99.90
66328;DHT22;53133;52.862;6.602;2022-10-13T11:58:19;13.70;99.90
66328;DHT22;53133;52.862;6.602;2022-10-13T12:03:34;13.70;99.90
66328;DHT22;53133;52.862;6.602;2022-10-13T12:08:47;13.70;99.90
66328;DHT22;53133;52.862;6.602;2022-10-13T12:11:25;13.70;99.90
66328;DHT22;53133;52.862;6.602;2022-10-13T12:13:52;13.70;99.90
66328;DHT22;53133;52.862;6.602;2022-10-13T12:16:18;13.70;99.90
66328;DHT22;53133;52.862;6.602;2022-10-13T12:18:43;13.70;99.90
66328;DHT22;53133;52.862;6.602;2022-10-13T12:21:12;13.70;99.90
66328;DHT22;53133;52.862;6.602;2022-10-13T12:23:39;13.70;99.90
66328;DHT22;53133;52.862;6.602;2022-10-13T12:26:05;13.70;99.90
66328;DHT22;53133;52.862;6.602;2022-10-13T12:28:57;13.80;99.90
66328;DHT22;53133;52.862;6.602;2022-10-13T12:31:37;13.80;99.90
66328;DHT22;53133;52.862;6.602;2022-10-13T12:36:41;13.80;99.90
66328;DHT22;53133;52.862;6.602;2022-10-13T12:39:12;13.80;99.90
66328;DHT22;53133;52.862;6.602;2022-10-13T12:41:43;13.80;99.90
66328;DHT22;53133;52.862;6.602;2022-10-13T12:44:34;13.80;99.90
66328;DHT22;53133;52.862;6.602;2022-10-13T12:47:00;13.80;99.90
66328;DHT22;53133;52.862;6.602;2022-10-13T12:49:35;13.90;99.90
66328;DHT22;53133;52.862;6.602;2022-10-13T12:52:12;13.90;99.90
66328;DHT22;53133;52.862;6.602;2022-10-13T12:54:50;13.90;99.90
66328;DHT22;53133;52.862;6.602;2022-10-13T12:57:36;13.90;99.90
66328;DHT22;53133;52.862;6.602;2022-10-13T13:02:53;14.00;99.90
66328;DHT22;53133;52.862;6.602;2022-10-13T13:05:33;14.00;99.90
66328;DHT22;53133;52.862;6.602;2022-10-13T13:08:00;14.10;99.90
66328;DHT22;53133;52.862;6.602;2022-10-13T13:10:27;14.10;99.90
66328;DHT22;53133;52.862;6.602;2022-10-13T13:12:53;14.10;99.90
66328;DHT22;53133;52.862;6.602;2022-10-13T13:15:39;14.10;99.90
66328;DHT22;53133;52.862;6.602;2022-10-13T13:18:31;14.20;99.90
66328;DHT22;53133;52.862;6.602;2022-10-13T13:21:04;14.20;99.90
66328;DHT22;53133;52.862;6.602;2022-10-13T13:23:30;14.20;99.90
66328;DHT22;53133;52.862;6.602;2022-10-13T13:26:01;14.30;99.90
66328;DHT22;53133;52.862;6.602;2022-10-13T13:28:29;14.30;99.90
66328;DHT22;53133;52.862;6.602;2022-10-13T13:30:55;14.30;99.90
66328;DHT22;53133;52.862;6.602;2022-10-13T13:33:20;14.30;99.90
66328;DHT22;53133;52.862;6.602;2022-10-13T13:35:46;14.40;99.90
66328;DHT22;53133;52.862;6.602;2022-10-13T13:38:13;14.40;99.90
66328;DHT22;53133;52.862;6.602;2022-10-13T13:40:39;14.40;99.90
66328;DHT22;53133;52.862;6.602;2022-10-13T13:43:04;14.40;99.90
66328;DHT22;53133;52.862;6.602;2022-10-13T13:45:30;14.40;99.90
66328;DHT22;53133;52.862;6.602;2022-10-13T13:47:58;14.40;99.90
66328;DHT22;53133;52.862;6.602;2022-10-13T13:50:26;14.40;99.90
66328;DHT22;53133;52.862;6.602;2022-10-13T13:52:53;14.30;99.90
66328;DHT22;53133;52.862;6.602;2022-10-13T13:55:18;14.30;99.90
66328;DHT22;53133;52.862;6.602;2022-10-13T13:57:44;14.30;99.90
66328;DHT22;53133;52.862;6.602;2022-10-13T14:00:12;14.20;99.90
66328;DHT22;53133;52.862;6.602;2022-10-13T14:02:38;14.20;99.90
66328;DHT22;53133;52.862;6.602;2022-10-13T14:05:04;14.20;99.90
66328;DHT22;53133;52.862;6.602;2022-10-13T14:07:31;14.10;99.90
66328;DHT22;53133;52.862;6.602;2022-10-13T14:09:57;14.10;99.90
66328;DHT22;53133;52.862;6.602;2022-10-13T14:12:23;14.10;99.90
66328;DHT22;53133;52.862;6.602;2022-10-13T14:14:48;14.00;99.90
66328;DHT22;53133;52.862;6.602;2022-10-13T14:17:14;14.00;99.90
66328;DHT22;53133;52.862;6.602;2022-10-13T14:19:40;14.00;99.90
66328;DHT22;53133;52.862;6.602;2022-10-13T14:22:06;14.00;99.90
66328;DHT22;53133;52.862;6.602;2022-10-13T14:24:32;14.00;99.90
66328;DHT22;53133;52.862;6.602;2022-10-13T14:26:58;14.00;99.90
66328;DHT22;53133;52.862;6.602;2022-10-13T14:29:24;14.00;99.90
66328;DHT22;53133;52.862;6.602;2022-10-13T14:31:50;14.00;99.90
66328;DHT22;53133;52.862;6.602;2022-10-13T14:34:16;14.00;99.90
66328;DHT22;53133;52.862;6.602;2022-10-13T14:36:41;14.00;99.90
66328;DHT22;53133;52.862;6.602;2022-10-13T14:39:07;14.00;99.90
66328;DHT22;53133;52.862;6.602;2022-10-13T14:41:32;14.00;99.90
66328;DHT22;53133;52.862;6.602;2022-10-13T14:43:58;14.00;99.90
66328;DHT22;53133;52.862;6.602;2022-10-13T14:46:24;14.10;99.90
66328;DHT22;53133;52.862;6.602;2022-10-13T14:48:49;14.00;99.90
66328;DHT22;53133;52.862;6.602;2022-10-13T14:51:15;14.10;99.90
66328;DHT22;53133;52.862;6.602;2022-10-13T14:53:42;14.00;99.90
66328;DHT22;53133;52.862;6.602;2022-10-13T14:56:25;14.00;99.90
66328;DHT22;53133;52.862;6.602;2022-10-13T14:58:56;14.00;99.90
66328;DHT22;53133;52.862;6.602;2022-10-13T15:01:22;14.00;99.90
66328;DHT22;53133;52.862;6.602;2022-10-13T15:03:48;14.00;99.90
66328;DHT22;53133;52.862;6.602;2022-10-13T15:06:16;14.00;99.90
66328;DHT22;53133;52.862;6.602;2022-10-13T15:08:42;14.00;99.90
66328;DHT22;53133;52.862;6.602;2022-10-13T15:11:09;14.00;99.90
66328;DHT22;53133;52.862;6.602;2022-10-13T15:13:35;14.10;99.90
66328;DHT22;53133;52.862;6.602;2022-10-13T15:16:01;14.10;99.90
66328;DHT22;53133;52.862;6.602;2022-10-13T15:18:29;14.10;99.90
66328;DHT22;53133;52.862;6.602;2022-10-13T15:20:55;14.10;99.90
66328;DHT22;53133;52.862;6.602;2022-10-13T15:23:20;14.10;99.90
66328;DHT22;53133;52.862;6.602;2022-10-13T15:25:54;14.10;99.90
66328;DHT22;53133;52.862;6.602;2022-10-13T15:28:21;14.10;99.90
66328;DHT22;53133;52.862;6.602;2022-10-13T15:30:47;14.10;99.90
66328;DHT22;53133;52.862;6.602;2022-10-13T15:33:13;14.10;99.90
66328;DHT22;53133;52.862;6.602;2022-10-13T15:35:39;14.00;99.90
66328;DHT22;53133;52.862;6.602;2022-10-13T15:38:04;14.00;99.90
66328;DHT22;53133;52.862;6.602;2022-10-13T15:40:30;14.00;99.90
66328;DHT22;53133;52.862;6.602;2022-10-13T15:42:58;14.00;99.90
66328;DHT22;53133;52.862;6.602;2022-10-13T15:45:24;14.00;99.90
66328;DHT22;53133;52.862;6.602;2022-10-13T15:47:50;13.90;99.90
66328;DHT22;53133;52.862;6.602;2022-10-13T15:50:16;13.90;99.90
66328;DHT22;53133;52.862;6.602;2022-10-13T15:52:42;13.90;99.90
66328;DHT22;53133;52.862;6.602;2022-10-13T15:55:09;13.90;99.90
66328;DHT22;53133;52.862;6.602;2022-10-13T15:57:36;13.90;99.90
66328;DHT22;53133;52.862;6.602;2022-10-13T16:00:03;13.90;99.90
66328;DHT22;53133;52.862;6.602;2022-10-13T16:02:29;13.90;99.90
66328;DHT22;53133;52.862;6.602;2022-10-13T16:04:54;13.90;99.90
66328;DHT22;53133;52.862;6.602;2022-10-13T16:07:22;13.90;99.90
66328;DHT22;53133;52.862;6.602;2022-10-13T16:09:48;13.90;99.90
66328;DHT22;53133;52.862;6.602;2022-10-13T16:12:14;13.90;99.90
66328;DHT22;53133;52.862;6.602;2022-10-13T16:14:39;13.80;99.90
66328;DHT22;53133;52.862;6.602;2022-10-13T16:17:05;13.90;99.90
66328;DHT22;53133;52.862;6.602;2022-10-13T16:19:30;13.80;99.90
66328;DHT22;53133;52.862;6.602;2022-10-13T16:21:56;13.80;99.90
66328;DHT22;53133;52.862;6.602;2022-10-13T16:24:21;13.90;99.90
66328;DHT22;53133;52.862;6.602;2022-10-13T16:26:47;13.80;99.90
66328;DHT22;53133;52.862;6.602;2022-10-13T16:29:13;13.80;99.90
66328;DHT22;53133;52.862;6.602;2022-10-13T16:31:38;13.80;99.90
66328;DHT22;53133;52.862;6.602;2022-10-13T16:34:04;13.80;99.90
66328;DHT22;53133;52.862;6.602;2022-10-13T16:36:29;13.80;99.90
66328;DHT22;53133;52.862;6.602;2022-10-13T16:38:55;13.80;99.90
66328;DHT22;53133;52.862;6.602;2022-10-13T16:41:21;13.80;99.90
66328;DHT22;53133;52.862;6.602;2022-10-13T16:43:48;13.80;99.90
66328;DHT22;53133;52.862;6.602;2022-10-13T16:46:16;13.80;99.90
66328;DHT22;53133;52.862;6.602;2022-10-13T16:48:43;13.80;99.90
66328;DHT22;53133;52.862;6.602;2022-10-13T16:51:14;13.80;99.90
66328;DHT22;53133;52.862;6.602;2022-10-13T16:53:40;13.70;99.90
66328;DHT22;53133;52.862;6.602;2022-10-13T16:56:07;13.70;99.90
66328;DHT22;53133;52.862;6.602;2022-10-13T16:58:33;13.70;99.90
66328;DHT22;53133;52.862;6.602;2022-10-13T17:01:07;13.70;99.90
66328;DHT22;53133;52.862;6.602;2022-10-13T17:03:34;13.70;99.90
66328;DHT22;53133;52.862;6.602;2022-10-13T17:06:00;13.60;99.90
66328;DHT22;53133;52.862;6.602;2022-10-13T17:08:25;13.70;99.90
66328;DHT22;53133;52.862;6.602;2022-10-13T17:10:51;13.60;99.90
66328;DHT22;53133;52.862;6.602;2022-10-13T17:13:17;13.70;99.90
66328;DHT22;53133;52.862;6.602;2022-10-13T17:15:52;13.60;99.90
66328;DHT22;53133;52.862;6.602;2022-10-13T17:18:19;13.60;99.90
66328;DHT22;53133;52.862;6.602;2022-10-13T17:20:51;13.60;99.90
66328;DHT22;53133;52.862;6.602;2022-10-13T17:23:17;13.60;99.90